createdAt,value
2022-08-08T00:00:52.415Z,30.10
2022-08-08T00:03:50.760Z,30.10
2022-08-08T00:06:41.233Z,30.20
2022-08-08T00:09:39.700Z,30.20
2022-08-08T00:12:12.801Z,30.20
2022-08-08T00:14:59.536Z,30.10
2022-08-08T00:18:03.789Z,30.30
2022-08-08T00:21:11.195Z,30.30
2022-08-08T00:24:09.701Z,30.20
2022-08-08T00:26:46.102Z,30.40
2022-08-08T00:29:45.263Z,30.30
2022-08-08T00:32:57.431Z,30.40
2022-08-08T00:35:34.564Z,30.40
2022-08-08T00:38:54.627Z,30.30
2022-08-08T00:41:54.534Z,30.50
2022-08-08T00:44:27.837Z,30.40
2022-08-08T00:47:25.513Z,30.30
2022-08-08T00:50:25.686Z,30.50
2022-08-08T00:53:43.731Z,30.60
2022-08-08T00:57:00.833Z,30.70
2022-08-08T01:00:12.108Z,30.40
2022-08-08T01:04:01.459Z,30.70
2022-08-08T01:06:08.531Z,30.60
2022-08-08T01:09:35.807Z,30.60
2022-08-08T01:11:55.854Z,30.70
2022-08-08T01:15:06.938Z,30.50
2022-08-08T01:18:02.143Z,30.80
2022-08-08T01:20:53.040Z,30.70
2022-08-08T01:24:13.807Z,30.90
2022-08-08T01:27:33.292Z,30.90
2022-08-08T01:32:02.940Z,30.80
2022-08-08T01:34:50.385Z,30.90
2022-08-08T01:38:07.822Z,30.90
2022-08-08T01:41:22.540Z,30.90
2022-08-08T01:44:36.764Z,31.00
2022-08-08T01:48:14.589Z,31.00
2022-08-08T01:51:32.361Z,31.00
2022-08-08T01:55:25.813Z,31.10
2022-08-08T01:58:11.579Z,30.90
2022-08-08T02:00:40.541Z,31.20
2022-08-08T02:04:02.159Z,31.20
2022-08-08T02:06:55.109Z,31.30
2022-08-08T02:10:11.629Z,31.10
2022-08-08T02:13:06.900Z,31.30
2022-08-08T02:15:47.050Z,31.30
2022-08-08T02:18:45.996Z,31.30
2022-08-08T02:21:49.041Z,31.40
2022-08-08T02:24:46.852Z,31.40
2022-08-08T02:27:38.694Z,31.40
2022-08-08T02:30:21.212Z,31.50
2022-08-08T02:33:14.183Z,31.30
2022-08-08T02:36:16.543Z,31.50
2022-08-08T02:39:58.322Z,31.60
2022-08-08T02:44:36.797Z,31.60
2022-08-08T02:46:46.759Z,31.60
2022-08-08T02:49:51.134Z,31.60
2022-08-08T02:52:51.819Z,31.60
2022-08-08T02:55:59.834Z,31.60
2022-08-08T02:59:25.778Z,31.70
2022-08-08T03:02:50.779Z,31.70
2022-08-08T03:05:51.493Z,31.70
2022-08-08T03:09:28.559Z,31.60
2022-08-08T03:12:36.891Z,31.70
2022-08-08T03:15:59.617Z,31.80
2022-08-08T03:19:12.275Z,31.90
2022-08-08T03:21:58.265Z,31.80
2022-08-08T03:24:28.655Z,31.70
2022-08-08T03:27:28.797Z,31.60
2022-08-08T03:30:10.370Z,31.90
2022-08-08T03:33:07.938Z,31.90
2022-08-08T03:35:53.541Z,31.80
2022-08-08T03:38:56.609Z,31.70
2022-08-08T03:42:12.466Z,31.80
2022-08-08T03:43:59.635Z,31.70
2022-08-08T03:46:32.590Z,32.50
2022-08-08T03:49:48.420Z,31.80
2022-08-08T03:51:57.054Z,32.00
2022-08-08T03:54:41.728Z,32.10
2022-08-08T03:58:32.864Z,32.00
2022-08-08T04:00:11.499Z,32.00
2022-08-08T04:02:52.275Z,32.10
2022-08-08T04:05:28.106Z,32.10
2022-08-08T04:07:57.968Z,32.60
2022-08-08T04:10:31.898Z,32.10
2022-08-08T04:13:17.121Z,32.20
2022-08-08T04:15:54.905Z,32.10
2022-08-08T04:18:32.554Z,32.20
2022-08-08T04:21:00.357Z,32.10
2022-08-08T04:23:33.230Z,32.20
2022-08-08T04:26:14.832Z,32.20
2022-08-08T04:28:42.749Z,32.20
2022-08-08T04:31:10.045Z,32.30
2022-08-08T04:33:57.043Z,32.30
2022-08-08T04:36:24.111Z,32.30
2022-08-08T04:39:20.199Z,32.40
2022-08-08T04:41:40.657Z,32.30
2022-08-08T04:44:09.352Z,32.40
2022-08-08T04:46:36.262Z,32.40
2022-08-08T04:49:06.497Z,32.40
2022-08-08T04:51:57.034Z,32.40
2022-08-08T04:54:38.220Z,32.40
2022-08-08T04:57:07.374Z,32.40
2022-08-08T04:59:41.928Z,32.50
2022-08-08T05:02:13.633Z,32.50
2022-08-08T05:04:44.559Z,32.70
2022-08-08T05:07:12.052Z,32.70
2022-08-08T05:09:42.994Z,32.50
2022-08-08T05:12:10.294Z,32.60
2022-08-08T05:14:49.035Z,32.60
2022-08-08T05:17:19.511Z,32.70
2022-08-08T05:20:10.731Z,32.70
2022-08-08T05:22:33.581Z,32.70
2022-08-08T05:25:01.194Z,32.70
2022-08-08T05:27:33.367Z,32.80
2022-08-08T05:30:00.709Z,32.70
2022-08-08T05:32:29.952Z,32.70
2022-08-08T05:35:04.351Z,32.70
2022-08-08T05:37:52.140Z,32.70
2022-08-08T05:40:28.244Z,33.30
2022-08-08T05:43:03.253Z,32.60
2022-08-08T05:45:53.006Z,32.60
2022-08-08T05:48:28.725Z,32.60
2022-08-08T05:51:12.910Z,32.70
2022-08-08T05:54:24.516Z,32.80
2022-08-08T05:56:42.503Z,32.90
2022-08-08T06:00:00.907Z,33.00
2022-08-08T06:02:48.817Z,33.10
2022-08-08T06:05:35.642Z,33.40
2022-08-08T06:08:10.532Z,33.20
2022-08-08T06:10:54.413Z,33.20
2022-08-08T06:13:23.519Z,33.30
2022-08-08T06:15:55.885Z,33.30
2022-08-08T06:18:25.979Z,33.50
2022-08-08T06:20:57.936Z,33.40
2022-08-08T06:23:52.814Z,33.50
2022-08-08T06:26:42.955Z,33.60
2022-08-08T06:29:26.339Z,33.60
2022-08-08T06:32:09.824Z,33.60
2022-08-08T06:34:43.008Z,33.70
2022-08-08T06:37:24.940Z,33.50
2022-08-08T06:40:00.789Z,33.60
2022-08-08T06:42:38.258Z,33.60
2022-08-08T06:45:07.817Z,33.60
2022-08-08T06:47:52.422Z,33.60
2022-08-08T06:50:31.434Z,33.50
2022-08-08T06:53:13.855Z,33.70
2022-08-08T06:55:46.957Z,33.80
2022-08-08T06:58:14.525Z,33.70
2022-08-08T07:00:47.896Z,33.70
2022-08-08T07:03:52.020Z,33.80
2022-08-08T07:06:37.997Z,33.80
2022-08-08T07:09:17.935Z,33.80
2022-08-08T07:11:52.085Z,33.90
2022-08-08T07:14:27.949Z,33.80
2022-08-08T07:17:19.210Z,33.80
2022-08-08T07:20:11.364Z,33.90
2022-08-08T07:23:11.668Z,33.90
2022-08-08T07:25:54.799Z,33.90
2022-08-08T07:28:31.612Z,33.80
2022-08-08T07:31:01.490Z,33.70
2022-08-08T07:33:38.024Z,33.90
2022-08-08T07:36:22.117Z,34.00
2022-08-08T07:38:53.417Z,33.80
2022-08-08T07:41:25.456Z,33.90
2022-08-08T07:43:57.446Z,34.00
2022-08-08T07:46:30.380Z,33.90
2022-08-08T07:48:58.048Z,33.80
2022-08-08T07:51:53.065Z,33.80
2022-08-08T07:54:33.117Z,33.80
2022-08-08T07:57:48.157Z,34.00
2022-08-08T08:00:18.744Z,33.90
2022-08-08T08:03:05.068Z,33.70
2022-08-08T08:05:41.426Z,33.90
2022-08-08T08:08:25.471Z,33.90
2022-08-08T08:10:57.874Z,34.50
2022-08-08T08:14:07.582Z,33.90
2022-08-08T08:16:41.060Z,34.10
2022-08-08T08:19:15.028Z,33.90
2022-08-08T08:21:57.044Z,34.00
2022-08-08T08:24:30.935Z,34.00
2022-08-08T08:27:02.950Z,34.00
2022-08-08T08:29:31.360Z,34.00
2022-08-08T08:32:03.454Z,34.00
2022-08-08T08:34:33.661Z,34.00
2022-08-08T08:37:08.311Z,34.00
2022-08-08T08:40:00.039Z,34.00
2022-08-08T08:42:31.924Z,34.60
2022-08-08T08:45:21.178Z,34.00
2022-08-08T08:47:58.427Z,34.00
2022-08-08T08:50:32.928Z,34.00
2022-08-08T08:53:28.042Z,34.00
2022-08-08T08:56:01.280Z,34.10
2022-08-08T08:58:43.104Z,34.10
2022-08-08T09:01:17.728Z,34.10
2022-08-08T09:03:50.850Z,34.00
2022-08-08T09:06:33.310Z,34.00
2022-08-08T09:09:39.546Z,34.00
2022-08-08T09:12:11.380Z,33.90
2022-08-08T09:14:42.952Z,33.80
2022-08-08T09:17:18.263Z,33.90
2022-08-08T09:21:58.407Z,33.80
2022-08-08T09:22:40.774Z,33.80
2022-08-08T09:25:11.842Z,33.70
2022-08-08T09:27:57.888Z,33.70
2022-08-08T09:30:28.227Z,33.40
2022-08-08T09:33:12.510Z,33.50
2022-08-08T09:35:51.254Z,33.40
2022-08-08T09:38:54.146Z,33.40
2022-08-08T09:42:13.859Z,33.50
2022-08-08T09:45:08.161Z,33.30
2022-08-08T09:48:10.344Z,33.30
2022-08-08T09:50:32.515Z,33.40
2022-08-08T09:53:23.430Z,33.20
2022-08-08T09:56:04.440Z,33.50
2022-08-08T09:58:48.532Z,33.40
2022-08-08T10:01:58.109Z,33.40
2022-08-08T10:04:38.499Z,33.40
2022-08-08T10:07:07.175Z,33.50
2022-08-08T10:09:35.831Z,33.40
2022-08-08T10:12:52.961Z,33.10
2022-08-08T10:15:27.682Z,33.20
2022-08-08T10:18:09.109Z,33.30
2022-08-08T10:20:57.663Z,33.20
2022-08-08T10:23:49.578Z,33.10
2022-08-08T10:26:57.611Z,33.00
2022-08-08T10:30:04.009Z,33.00
2022-08-08T10:32:34.516Z,32.80
2022-08-08T10:36:09.338Z,33.00
2022-08-08T10:38:05.868Z,33.00
2022-08-08T10:40:39.095Z,33.00
2022-08-08T10:43:10.006Z,33.10
2022-08-08T10:45:55.581Z,33.10
2022-08-08T10:48:58.858Z,33.00
2022-08-08T10:51:47.439Z,33.10
2022-08-08T10:54:25.299Z,33.10
2022-08-08T10:57:04.614Z,33.10
2022-08-08T10:59:39.964Z,33.10
2022-08-08T11:02:09.082Z,33.20
2022-08-08T11:04:53.423Z,33.00
2022-08-08T11:08:30.896Z,33.20
2022-08-08T11:10:29.385Z,33.20
2022-08-08T11:13:28.241Z,33.40
2022-08-08T11:15:58.891Z,33.30
2022-08-08T11:18:31.116Z,33.50
2022-08-08T11:21:08.886Z,33.50
2022-08-08T11:23:41.459Z,33.60
2022-08-08T11:26:19.291Z,34.40
2022-08-08T11:28:50.238Z,33.60
2022-08-08T11:31:20.791Z,33.80
2022-08-08T11:34:01.921Z,33.80
2022-08-08T11:36:39.546Z,33.60
2022-08-08T11:39:13.267Z,33.80
2022-08-08T11:41:43.217Z,33.70
2022-08-08T11:44:11.769Z,33.60
2022-08-08T11:46:40.320Z,33.60
2022-08-08T11:49:13.974Z,33.40
2022-08-08T11:51:50.584Z,33.40
2022-08-08T11:54:33.864Z,33.20
2022-08-08T11:57:23.688Z,32.50
2022-08-08T12:00:05.328Z,32.40
2022-08-08T12:02:47.089Z,32.90
2022-08-08T12:05:14.622Z,32.50
2022-08-08T12:07:56.667Z,32.40
2022-08-08T12:10:27.455Z,31.90
2022-08-08T12:13:10.569Z,32.00
2022-08-08T12:15:48.191Z,31.40
2022-08-08T12:18:26.313Z,31.70
2022-08-08T12:20:58.885Z,31.90
2022-08-08T12:23:43.034Z,31.40
2022-08-08T12:26:27.807Z,31.20
2022-08-08T12:29:21.701Z,31.30
2022-08-08T12:32:13.284Z,31.10
2022-08-08T12:35:04.789Z,30.60
2022-08-08T12:37:43.506Z,31.10
2022-08-08T12:40:56.815Z,30.90
2022-08-08T12:43:43.810Z,30.70
2022-08-08T12:46:26.185Z,30.80
2022-08-08T12:49:25.788Z,30.80
2022-08-08T12:51:58.657Z,30.80
2022-08-08T12:54:38.170Z,30.80
2022-08-08T12:57:25.898Z,30.60
2022-08-08T13:00:06.918Z,30.70
2022-08-08T13:02:51.714Z,30.80
2022-08-08T13:05:26.943Z,30.80
2022-08-08T13:08:20.411Z,30.80
2022-08-08T13:10:58.463Z,30.70
2022-08-08T13:13:35.394Z,30.70
2022-08-08T13:16:25.283Z,30.70
2022-08-08T13:19:01.589Z,30.50
2022-08-08T13:21:52.832Z,31.00
2022-08-08T13:24:40.797Z,30.00
2022-08-08T13:27:29.947Z,30.00
2022-08-08T13:30:06.404Z,29.90
2022-08-08T13:32:39.563Z,29.80
2022-08-08T13:35:11.660Z,29.70
2022-08-08T13:38:06.168Z,29.70
2022-08-08T13:40:35.568Z,29.70
2022-08-08T13:43:03.882Z,29.70
2022-08-08T13:45:31.545Z,29.70
2022-08-08T13:48:01.323Z,29.60
2022-08-08T13:50:34.743Z,29.40
2022-08-08T13:53:24.916Z,29.40
2022-08-08T13:56:05.864Z,29.40
2022-08-08T13:58:34.511Z,29.30
2022-08-08T14:01:19.091Z,29.90
2022-08-08T14:04:00.094Z,29.50
2022-08-08T14:06:33.326Z,29.30
2022-08-08T14:09:24.634Z,29.40
2022-08-08T14:11:49.271Z,29.30
2022-08-08T14:14:20.985Z,29.30
2022-08-08T14:16:52.679Z,29.50
2022-08-08T14:19:57.169Z,29.40
2022-08-08T14:22:24.917Z,29.50
2022-08-08T14:25:00.253Z,29.50
2022-08-08T14:27:40.395Z,29.50
2022-08-08T14:30:18.972Z,29.40
2022-08-08T14:32:52.956Z,29.40
2022-08-08T14:35:35.385Z,29.40
2022-08-08T14:38:33.675Z,29.50
2022-08-08T14:40:59.532Z,29.60
2022-08-08T14:44:02.367Z,29.50
2022-08-08T14:46:30.954Z,29.50
2022-08-08T14:49:20.518Z,29.40
2022-08-08T14:52:09.067Z,29.50
2022-08-08T14:54:56.073Z,29.50
2022-08-08T14:58:02.311Z,29.50
2022-08-08T15:00:11.816Z,29.40
2022-08-08T15:02:58.772Z,29.50
2022-08-08T15:05:42.794Z,29.60
2022-08-08T15:08:22.246Z,29.60
2022-08-08T15:11:04.597Z,30.00
2022-08-08T15:13:35.158Z,29.50
2022-08-08T15:16:11.684Z,29.40
2022-08-08T15:18:50.026Z,29.50
2022-08-08T15:21:20.904Z,29.50
2022-08-08T15:23:51.081Z,29.70
2022-08-08T15:26:20.491Z,29.50
2022-08-08T15:28:53.037Z,29.50
2022-08-08T15:31:25.881Z,29.50
2022-08-08T15:34:08.461Z,29.40
2022-08-08T15:36:35.758Z,29.40
2022-08-08T15:39:04.329Z,29.40
2022-08-08T15:41:43.827Z,29.40
2022-08-08T15:44:13.827Z,29.40
2022-08-08T15:46:45.542Z,29.40
2022-08-08T15:49:20.557Z,29.50
2022-08-08T15:51:54.730Z,29.60
2022-08-08T15:54:38.960Z,29.50
2022-08-08T15:57:09.303Z,29.60
2022-08-08T16:00:06.362Z,29.60
2022-08-08T16:02:30.716Z,29.60
2022-08-08T16:05:00.357Z,29.60
2022-08-08T16:07:51.037Z,29.60
2022-08-08T16:13:29.355Z,29.50
2022-08-08T16:13:29.958Z,29.60
2022-08-08T16:15:57.130Z,29.60
2022-08-08T16:18:29.474Z,29.60
2022-08-08T16:21:00.568Z,29.70
2022-08-08T16:23:32.160Z,29.60
2022-08-08T16:26:04.430Z,29.60
2022-08-08T16:28:35.099Z,29.70
2022-08-08T16:31:07.616Z,29.70
2022-08-08T16:33:39.327Z,29.80
2022-08-08T16:36:09.926Z,29.70
2022-08-08T16:38:44.341Z,29.90
2022-08-08T16:41:20.053Z,30.00
2022-08-08T16:43:51.102Z,30.10
2022-08-08T16:46:44.902Z,30.00
2022-08-08T16:49:08.839Z,30.00
2022-08-08T16:55:05.349Z,30.00
2022-08-08T16:55:18.388Z,30.00
2022-08-08T16:57:43.478Z,30.00
2022-08-08T17:00:09.354Z,30.00
2022-08-08T17:02:39.636Z,30.00
2022-08-08T17:05:10.036Z,30.00
2022-08-08T17:07:40.419Z,30.00
2022-08-08T17:10:16.881Z,30.00
2022-08-08T17:12:53.108Z,30.00
2022-08-08T17:15:23.103Z,30.00
2022-08-08T17:18:02.464Z,30.10
2022-08-08T17:20:39.715Z,30.10
2022-08-08T17:23:18.270Z,30.10
2022-08-08T17:25:54.180Z,30.10
2022-08-08T17:28:34.207Z,30.00
2022-08-08T17:31:43.134Z,30.10
2022-08-08T17:34:48.557Z,30.10
2022-08-08T17:36:47.944Z,30.10
2022-08-08T17:40:04.904Z,30.00
2022-08-08T17:42:15.100Z,30.10
2022-08-08T17:44:44.370Z,30.10
2022-08-08T17:47:16.301Z,30.10
2022-08-08T17:49:53.098Z,30.20
2022-08-08T17:52:29.023Z,30.20
2022-08-08T17:54:57.150Z,30.20
2022-08-08T17:57:28.819Z,30.20
2022-08-08T18:00:02.604Z,30.30
2022-08-08T18:02:30.170Z,30.50
2022-08-08T18:05:04.359Z,30.30
2022-08-08T18:08:01.898Z,30.30
2022-08-08T18:10:31.331Z,30.30
2022-08-08T18:12:59.089Z,30.40
2022-08-08T18:15:31.164Z,30.30
2022-08-08T18:18:05.226Z,30.30
2022-08-08T18:20:59.383Z,30.30
2022-08-08T18:23:26.839Z,30.30
2022-08-08T18:25:53.809Z,30.40
2022-08-08T18:28:23.615Z,30.30
2022-08-08T18:30:52.917Z,30.40
2022-08-08T18:34:10.530Z,30.40
2022-08-08T18:36:18.698Z,30.40
2022-08-08T18:38:50.444Z,30.50
2022-08-08T18:41:19.144Z,30.50
2022-08-08T18:43:46.273Z,30.40
2022-08-08T18:46:55.150Z,30.50
2022-08-08T18:49:00.818Z,30.40
2022-08-08T18:51:53.394Z,30.50
2022-08-08T18:54:22.849Z,30.50
2022-08-08T18:56:55.319Z,30.50
2022-08-08T18:59:23.135Z,30.60
2022-08-08T19:02:27.995Z,30.60
2022-08-08T19:04:38.058Z,30.60
2022-08-08T19:07:05.671Z,30.60
2022-08-08T19:09:49.330Z,30.70
2022-08-08T19:12:26.343Z,30.60
2022-08-08T19:14:53.762Z,30.70
2022-08-08T19:17:29.513Z,30.60
2022-08-08T19:20:09.942Z,30.70
2022-08-08T19:22:37.625Z,30.80
2022-08-08T19:26:01.007Z,30.70
2022-08-08T19:27:55.748Z,30.80
2022-08-08T19:30:26.474Z,30.80
2022-08-08T19:32:58.140Z,30.80
2022-08-08T19:35:44.342Z,30.90
2022-08-08T19:38:17.463Z,30.90
2022-08-08T19:40:55.636Z,30.80
2022-08-08T19:43:28.148Z,30.90
2022-08-08T19:45:57.706Z,30.80
2022-08-08T19:48:30.714Z,31.60
2022-08-08T19:50:59.631Z,31.00
2022-08-08T19:53:50.857Z,31.00
2022-08-08T19:56:25.820Z,31.00
2022-08-08T19:59:04.794Z,30.90
2022-08-08T20:01:59.704Z,31.20
2022-08-08T20:04:23.598Z,31.00
2022-08-08T20:06:51.044Z,30.90
2022-08-08T20:09:22.774Z,31.10
2022-08-08T20:11:52.045Z,31.10
2022-08-08T20:14:32.312Z,31.10
2022-08-08T20:17:04.334Z,31.30
2022-08-08T20:19:33.644Z,31.20
2022-08-08T20:22:13.068Z,31.20
2022-08-08T20:24:48.538Z,31.20
2022-08-08T20:27:20.042Z,31.20
2022-08-08T20:30:00.195Z,31.20
2022-08-08T20:32:31.780Z,31.30
2022-08-08T20:35:02.182Z,31.30
2022-08-08T20:37:36.993Z,31.20
2022-08-08T20:40:16.740Z,31.90
2022-08-08T20:42:55.199Z,31.30
2022-08-08T20:45:54.782Z,31.40
2022-08-08T20:48:10.465Z,31.30
2022-08-08T20:50:37.824Z,31.40
2022-08-08T20:53:10.841Z,31.30
2022-08-08T20:55:45.267Z,31.30
2022-08-08T20:58:23.067Z,31.40
2022-08-08T21:00:50.762Z,31.40
2022-08-08T21:03:17.845Z,31.40
2022-08-08T21:05:49.338Z,31.60
2022-08-08T21:08:37.396Z,31.40
2022-08-08T21:11:13.674Z,31.40
2022-08-08T21:13:43.534Z,31.40
2022-08-08T21:16:20.381Z,31.50
2022-08-08T21:18:57.190Z,31.60
2022-08-08T21:21:39.769Z,31.60
2022-08-08T21:24:15.946Z,31.60
2022-08-08T21:26:51.397Z,31.50
2022-08-08T21:29:21.660Z,31.60
2022-08-08T21:32:19.075Z,31.60
2022-08-08T21:34:56.797Z,31.60
2022-08-08T21:37:53.520Z,31.70
2022-08-08T21:40:30.963Z,31.80
2022-08-08T21:42:59.331Z,31.70
2022-08-08T21:48:01.254Z,31.70
2022-08-08T21:48:22.956Z,31.70
2022-08-08T21:51:10.097Z,31.70
2022-08-08T21:54:30.696Z,31.80
2022-08-08T21:56:33.851Z,31.70
2022-08-08T21:59:05.693Z,31.70
2022-08-08T22:01:41.165Z,31.70
2022-08-08T22:04:11.370Z,31.90
2022-08-08T22:06:40.316Z,31.90
2022-08-08T22:09:09.625Z,31.90
2022-08-08T22:11:51.165Z,31.40
2022-08-08T22:14:26.965Z,31.90
2022-08-08T22:16:56.292Z,31.80
2022-08-08T22:19:23.812Z,31.90
2022-08-08T22:21:53.094Z,31.90
2022-08-08T22:24:28.054Z,32.00
2022-08-08T22:27:01.215Z,32.60
2022-08-08T22:30:01.972Z,32.10
2022-08-08T22:32:19.087Z,32.00
2022-08-08T22:34:50.725Z,32.10
2022-08-08T22:37:49.722Z,32.00
2022-08-08T22:40:16.514Z,32.10
2022-08-08T22:42:47.227Z,32.10
2022-08-08T22:45:15.546Z,32.10
2022-08-08T22:47:46.710Z,32.10
2022-08-08T22:50:27.189Z,32.20
2022-08-08T22:54:28.170Z,32.20
2022-08-08T22:55:59.231Z,32.40
2022-08-08T22:58:34.100Z,32.20
2022-08-08T23:01:30.237Z,32.30
2022-08-08T23:03:59.205Z,32.40
2022-08-08T23:06:26.933Z,32.20
2022-08-08T23:08:58.547Z,32.30
2022-08-08T23:12:28.130Z,32.30
2022-08-08T23:14:21.134Z,32.50
2022-08-08T23:16:57.527Z,32.30
2022-08-08T23:19:30.897Z,32.40
2022-08-08T23:22:05.147Z,32.50
2022-08-08T23:24:41.622Z,32.50
2022-08-08T23:27:17.195Z,32.60
2022-08-08T23:30:03.623Z,32.70
2022-08-08T23:32:31.587Z,32.40
2022-08-08T23:35:00.110Z,32.50
2022-08-08T23:38:00.735Z,32.60
2022-08-08T23:40:16.408Z,32.60
2022-08-08T23:42:49.206Z,32.60
2022-08-08T23:45:18.468Z,32.50
2022-08-08T23:49:06.575Z,32.50
2022-08-08T23:50:57.293Z,32.60
2022-08-08T23:53:55.854Z,32.50
2022-08-08T23:56:12.081Z,32.70
2022-08-08T23:58:39.311Z,32.50
